Terminal Aerodrome Forecast
Issued by NWS Sterling, VA

Current Version | Previous Version | Graphics & Text | Print | Product List | Glossary Off
Versions: 1 2 3 4 5 6 7 8 9 10 11 12 13 14 15 16 17 18 19 20 21 22

000
FTUS41 KLWX 292100 AAB
TAFDCA
TAF AMD
KDCA 292101Z 2921/3018 16010KT 6SM -RA SCT050 OVC090
     FM292130 16010KT 3SM -RAPL SCT030 OVC050
     FM300000 17007KT P6SM BKN050
     FM300700 24007KT P6SM BKN050
     FM301200 30011KT P6SM BKN050
     FM301300 30013G23KT P6SM BKN050
     FM301600 31017G31KT P6SM BKN050=

USA.gov is the U.S. government's official web portal to all federal, state and local government web resources and services.